Latest Coastal Weather Observations for Adele Island

IDW60701

Issued at 12:05 am WST Friday 22 August 2014 (issued every 10 minutes, with the page automatically refreshed every 10 minutes)

About coastal observations | Map of coastal stations | Coastal observations for WA | Marine services | Other Formats
Station Details ID: 200735 Name: ADELE ISLAND Lat: -15.51 Lon: 123.16 Height: 4.6 m
Data from the previous 72 hours. | See also: Recent months for locations in Western Australia
Date/Time
WST
Temp

°C
Wind Pressure Rain
since 9am
mm
Weather Cloud Vis
km
Sea
Height
m
Swell
Dir
 
Speed
knots
Gust
knots
hPa Trend Height
m
Period
s
Dir
22/12:00am 24.7 N 7 8 1015.0 - - - - - - - - -
 
Date/Time
WST
Temp

°C
Wind Pressure Rain
since 9am
mm
Weather Cloud Vis
km
Sea
Height
m
Swell
Dir
 
Speed
knots
Gust
knots
hPa Trend Height
m
Period
s
Dir
21/11:30pm 24.4 N 4 5 1015.2 - - - - - - - - -
21/11:00pm 23.6 CALM 0 3 1015.4 - - - - - - - - -
21/10:30pm 23.7 CALM 0 0 1015.4 - - - - - - - - -
21/10:00pm 24.0 CALM 0 0 1015.5 - - - - - - - - -
21/09:30pm 24.1 CALM 0 0 1015.4 - - - - - - - - -
21/09:00pm 24.0 CALM 0 0 1015.3 - - - - - - - - -
21/08:30pm 24.1 NW 1 3 1015.4 - - - - - - - - -
21/08:00pm 24.6 NW 4 5 1015.1 - - - - - - - - -
21/07:30pm 24.2 CALM 0 0 1015.1 - - - - - - - - -
21/07:00pm 24.1 CALM 0 0 1014.9 - - - - - - - - -
21/06:30pm 24.3 S 3 3 1014.7 - - - - - - - - -
21/06:00pm 24.3 S 4 5 1014.3 - - - - - - - - -
21/05:30pm 24.6 SSE 4 5 1014.2 - - - - - - - - -
21/05:00pm 25.1 SSE 5 6 1014.1 - - - - - - - - -
21/04:30pm 25.5 SE 5 7 1013.8 - - - - - - - - -
21/04:00pm 25.5 SE 6 8 1013.5 - - - - - - - - -
21/03:30pm 25.5 SE 7 9 1013.3 - - - - - - - - -
21/03:00pm 25.8 SE 7 9 1013.2 - - - - - - - - -
21/02:30pm 25.8 ESE 6 8 1013.4 - - - - - - - - -
21/02:00pm 26.1 E 7 9 1013.7 - - - - - - - - -
21/01:30pm 25.2 E 7 10 1014.1 - - - - - - - - -
21/01:00pm 25.3 E 6 8 1014.5 - - - - - - - - -
21/12:30pm 25.8 E 6 9 1014.9 - - - - - - - - -
21/12:00pm 25.9 E 7 10 1015.3 - - - - - - - - -
21/11:30am 24.4 SE 7 11 1015.6 - - - - - - - - -
21/11:00am 24.8 ESE 7 10 1015.9 - - - - - - - - -
21/10:30am 24.6 E 7 11 1016.1 - - - - - - - - -
21/10:00am 24.3 SE 6 9 1016.4 - - - - - - - - -
21/09:30am 24.3 SE 7 10 1016.5 - - - - - - - - -
21/09:00am 24.7 SE 7 9 1016.3 - - - - - - - - -
21/08:30am 24.5 SE 7 10 1016.2 - - - - - - - - -
21/08:00am 24.4 SSE 7 9 1016.0 - - - - - - - - -
21/07:30am 23.7 SSE 5 6 1015.7 - - - - - - - - -
21/07:00am 23.7 SSE 6 6 1015.5 - - - - - - - - -
21/06:30am 23.6 SSE 7 7 1015.1 - - - - - - - - -
21/06:00am 23.6 SSE 5 6 1014.6 - - - - - - - - -
21/05:30am 23.6 SSE 5 6 1014.4 - - - - - - - - -
21/05:00am 23.7 ENE 4 4 1014.2 - - - - - - - - -
21/04:30am 23.6 NE 3 4 1014.1 - - - - - - - - -
21/04:00am 23.6 NE 3 4 1013.9 - - - - - - - - -
21/03:30am 23.7 NE 3 4 1013.9 - - - - - - - - -
21/03:00am 23.7 CALM 0 3 1014.0 - - - - - - - - -
21/02:30am 23.9 NNE 2 3 1014.1 - - - - - - - - -
21/02:00am 23.9 NNE 3 3 1014.1 - - - - - - - - -
21/01:30am 23.7 NNE 1 3 1014.2 - - - - - - - - -
21/01:00am 24.2 N 3 4 1014.3 - - - - - - - - -
21/12:30am 24.8 NNW 4 5 1014.4 - - - - - - - - -
21/12:00am 24.6 NW 5 5 1014.5 - - - - - - - - -
 
Date/Time
WST
Temp

°C
Wind Pressure Rain
since 9am
mm
Weather Cloud Vis
km
Sea
Height
m
Swell
Dir
 
Speed
knots
Gust
knots
hPa Trend Height
m
Period
s
Dir
20/11:30pm 24.5 NNW 4 5 1014.6 - - - - - - - - -
20/11:00pm 24.8 WNW 7 8 1014.7 - - - - - - - - -
20/10:30pm 24.9 NW 7 8 1014.8 - - - - - - - - -
20/10:00pm 24.8 NW 7 8 1014.9 - - - - - - - - -
20/09:30pm 24.9 NW 6 7 1015.1 - - - - - - - - -
20/09:00pm 24.7 NNW 6 7 1015.2 - - - - - - - - -
20/08:30pm 24.5 NNW 6 7 1015.3 - - - - - - - - -
20/08:00pm 24.8 NNW 6 6 1015.4 - - - - - - - - -
20/07:30pm 24.8 N 6 7 1015.1 - - - - - - - - -
20/07:00pm 24.7 N 5 6 1014.9 - - - - - - - - -
20/06:30pm 24.6 N 4 6 1014.7 - - - - - - - - -
20/06:00pm 24.6 N 3 4 1014.6 - - - - - - - - -
20/05:30pm 24.9 N 1 4 1014.6 - - - - - - - - -
20/05:00pm 24.9 N 4 5 1014.4 - - - - - - - - -
20/04:30pm 25.2 N 4 5 1014.2 - - - - - - - - -
20/04:00pm 25.4 N 5 6 1014.1 - - - - - - - - -
20/03:30pm 25.6 N 5 6 1013.9 - - - - - - - - -
20/03:00pm 25.8 NNE 4 6 1013.8 - - - - - - - - -
20/02:30pm 25.8 NNE 5 7 1014.0 - - - - - - - - -
20/02:00pm 25.4 ENE 6 7 1014.1 - - - - - - - - -
20/01:30pm 25.9 ENE 6 8 1014.4 - - - - - - - - -
20/01:00pm 25.4 ENE 7 9 1014.6 - - - - - - - - -
20/12:30pm 26.0 ENE 6 9 1015.1 - - - - - - - - -
20/12:00pm 25.7 E 7 9 1015.5 - - - - - - - - -
20/11:30am 25.7 E 7 9 1015.8 - - - - - - - - -
20/11:00am 25.0 E 7 9 1016.2 - - - - - - - - -
20/10:30am 24.9 ESE 8 11 1016.5 - - - - - - - - -
20/10:00am 25.9 ESE 7 10 1016.7 - - - - - - - - -
20/09:30am 24.9 ESE 8 10 1017.0 - - - - - - - - -
20/09:00am 24.8 SE 8 10 1017.1 - - - - - - - - -
20/08:30am 24.8 SE 7 9 1017.0 - - - - - - - - -
20/08:00am 24.5 SE 6 7 1016.6 - - - - - - - - -
20/07:30am 23.2 SSE 5 6 1016.3 - - - - - - - - -
20/07:00am 22.4 SSE 7 8 1015.9 - - - - - - - - -
20/06:30am 22.4 SSE 8 9 1015.8 - - - - - - - - -
20/06:00am 22.6 SSE 8 8 1015.3 - - - - - - - - -
20/05:30am 22.4 SSE 7 8 1015.2 - - - - - - - - -
20/05:00am 22.2 SSE 8 8 1014.8 - - - - - - - - -
20/04:30am 21.8 S 9 10 1014.8 - - - - - - - - -
20/04:00am 23.2 SSE 7 8 1014.5 - - - - - - - - -
20/03:30am 23.3 S 6 6 1014.7 - - - - - - - - -
20/03:00am 23.3 SSW 6 7 1014.6 - - - - - - - - -
20/02:30am 23.6 WSW 5 6 1014.8 - - - - - - - - -
20/02:00am 24.0 W 6 7 1014.9 - - - - - - - - -
20/01:30am 24.0 NW 6 7 1015.0 - - - - - - - - -
20/01:00am 24.0 NW 6 6 1015.0 - - - - - - - - -
20/12:30am 23.9 NW 5 6 1015.4 - - - - - - - - -
20/12:00am 23.8 W 5 6 1015.6 - - - - - - - - -
 
Date/Time
WST
Temp

°C
Wind Pressure Rain
since 9am
mm
Weather Cloud Vis
km
Sea
Height
m
Swell
Dir
 
Speed
knots
Gust
knots
hPa Trend Height
m
Period
s
Dir
19/11:30pm 24.1 WNW 6 7 1016.1 - - - - - - - - -
19/11:00pm 23.8 WNW 6 7 1016.1 - - - - - - - - -
19/10:30pm 23.8 W 7 9 1016.5 - - - - - - - - -
19/10:00pm 23.8 NW 6 7 1016.6 - - - - - - - - -
19/09:30pm 23.7 NW 6 7 1016.7 - - - - - - - - -
19/09:00pm 23.6 NW 6 7 1016.6 - - - - - - - - -
19/08:30pm 23.7 N 4 5 1016.8 - - - - - - - - -
19/08:00pm 23.7 N 4 5 1016.7 - - - - - - - - -
19/07:30pm 23.4 W 5 6 1016.8 - - - - - - - - -
19/07:00pm 23.1 SW 6 7 1016.3 - - - - - - - - -
19/06:30pm 23.9 WNW 5 6 1015.9 - - - - - - - - -
19/06:00pm 23.8 N 4 4 1015.1 - - - - - - - - -
19/05:30pm 23.9 NNW 4 5 1015.0 - - - - - - - - -
19/05:00pm 24.3 NNW 3 4 1014.8 - - - - - - - - -
19/04:30pm 24.6 NW 5 6 1015.1 - - - - - - - - -
19/04:00pm 24.3 NW 5 7 1015.0 - - - - - - - - -
19/03:30pm 24.6 WNW 5 7 1015.0 - - - - - - - - -
19/03:00pm 24.9 SW 6 8 1014.9 - - - - - - - - -
19/02:30pm 24.8 SW 7 10 1015.1 - - - - - - - - -
19/02:00pm 25.3 WSW 6 8 1015.1 - - - - - - - - -
19/01:30pm 24.7 SW 5 8 1015.4 - - - - - - - - -
19/01:00pm 24.7 NNW 5 8 1015.7 - - - - - - - - -
19/12:30pm 25.3 N 4 6 1016.1 - - - - - - - - -
19/12:00pm 25.2 NNW 4 6 1016.5 - - - - - - - - -
19/11:30am 25.2 NE 5 8 1017.1 - - - - - - - - -
19/11:00am 25.8 SSE 3 5 1017.2 - - - - - - - - -
19/10:30am 25.5 E 4 6 1017.7 - - - - - - - - -
19/10:00am 25.3 ESE 5 7 1017.9 - - - - - - - - -
19/09:30am 25.5 ESE 5 7 1018.1 - - - - - - - - -
19/09:00am 24.6 ESE 5 6 1018.1 - - - - - - - - -
19/08:30am 24.7 SE 4 7 1018.3 - - - - - - - - -
19/08:00am 24.0 SSE 4 5 1018.3 - - - - - - - - -
19/07:30am 23.4 N 3 4 1018.3 - - - - - - - - -
19/07:00am 23.4 NNW 3 4 1017.8 - - - - - - - - -
19/06:30am 22.9 S 3 4 1017.7 - - - - - - - - -
19/06:00am 23.0 S 3 3 1017.2 - - - - - - - - -
19/05:30am 22.9 S 3 3 1017.0 - - - - - - - - -
19/05:00am 23.0 NE 3 3 1016.6 - - - - - - - - -
19/04:30am 23.2 ENE 3 4 1016.6 - - - - - - - - -
19/04:00am 23.1 ESE 5 5 1016.5 - - - - - - - - -
19/03:30am 22.8 ENE 3 4 1016.5 - - - - - - - - -
19/03:00am 22.9 NE 5 5 1016.4 - - - - - - - - -
19/02:30am 23.1 NNE 4 5 1016.5 - - - - - - - - -
19/02:00am 22.2 CALM 0 0 1016.3 - - - - - - - - -
19/01:30am 23.0 CALM 0 0 1016.5 - - - - - - - - -
19/01:00am 23.5 N 4 5 1016.5 - - - - - - - - -
19/12:30am 23.5 N 5 5 1016.6 - - - - - - - - -

Other Formats:

Comma delimited format used in spreadsheet applications
http://www.bom.gov.au/fwo/IDW60701/IDW60701.94210.axf

JavaScript Object Notation format (JSON) in row-major order
http://www.bom.gov.au/fwo/IDW60701/IDW60701.94210.json